createdAt,value
2023-05-15T00:00:44.469Z,100.00
2023-05-15T00:03:12.283Z,100.00
2023-05-15T00:05:39.395Z,100.00
2023-05-15T00:08:05.949Z,100.00
2023-05-15T00:10:32.301Z,100.00
2023-05-15T00:12:58.681Z,100.00
2023-05-15T00:15:25.692Z,100.00
2023-05-15T00:17:52.393Z,100.00
2023-05-15T00:20:18.911Z,100.00
2023-05-15T00:22:45.584Z,100.00
2023-05-15T00:25:11.984Z,100.00
2023-05-15T00:27:38.364Z,100.00
2023-05-15T00:30:05.798Z,100.00
2023-05-15T00:32:32.209Z,100.00
2023-05-15T00:34:58.639Z,100.00
2023-05-15T00:37:25.014Z,100.00
2023-05-15T00:39:51.492Z,100.00
2023-05-15T00:42:18.838Z,100.00
2023-05-15T00:44:45.993Z,100.00
2023-05-15T00:47:13.623Z,100.00
2023-05-15T00:49:41.529Z,100.00
2023-05-15T00:52:08.625Z,100.00
2023-05-15T00:54:35.400Z,100.00
2023-05-15T00:57:05.597Z,100.00
2023-05-15T00:59:33.174Z,100.00
2023-05-15T01:01:59.715Z,100.00
2023-05-15T01:04:26.404Z,100.00
2023-05-15T01:06:55.403Z,100.00
2023-05-15T01:09:24.765Z,100.00
2023-05-15T01:11:54.667Z,100.00
2023-05-15T01:14:21.259Z,100.00
2023-05-15T01:16:47.879Z,100.00
2023-05-15T01:19:14.637Z,100.00
2023-05-15T01:21:50.635Z,100.00
2023-05-15T01:24:51.318Z,100.00
2023-05-15T01:27:39.661Z,100.00
2023-05-15T01:30:23.541Z,100.00
2023-05-15T01:33:17.221Z,100.00
2023-05-15T01:36:00.062Z,100.00
2023-05-15T01:38:44.713Z,100.00
2023-05-15T01:41:19.697Z,100.00
2023-05-15T01:43:48.696Z,100.00
2023-05-15T01:46:19.777Z,100.00
2023-05-15T01:48:48.202Z,100.00
2023-05-15T01:51:15.950Z,100.00
2023-05-15T01:53:43.872Z,100.00
2023-05-15T01:56:13.910Z,100.00
2023-05-15T01:58:41.374Z,100.00
2023-05-15T02:01:10.759Z,100.00
2023-05-15T02:03:37.555Z,100.00
2023-05-15T02:06:05.985Z,100.00
2023-05-15T02:08:32.968Z,100.00
2023-05-15T02:11:03.215Z,100.00
2023-05-15T02:13:31.566Z,100.00
2023-05-15T02:15:58.249Z,100.00
2023-05-15T02:18:24.754Z,100.00
2023-05-15T02:20:51.289Z,100.00
2023-05-15T02:23:17.915Z,100.00
2023-05-15T02:26:23.252Z,100.00
2023-05-15T02:29:26.621Z,100.00
2023-05-15T02:32:10.396Z,100.00
2023-05-15T02:34:47.582Z,100.00
2023-05-15T02:37:18.271Z,100.00
2023-05-15T02:39:46.255Z,100.00
2023-05-15T02:42:14.836Z,100.00
2023-05-15T02:44:43.325Z,100.00
2023-05-15T02:47:11.175Z,100.00
2023-05-15T02:49:39.082Z,100.00
2023-05-15T02:52:05.821Z,100.00
2023-05-15T02:54:32.184Z,100.00
2023-05-15T02:56:58.779Z,100.00
2023-05-15T02:59:25.430Z,100.00
2023-05-15T03:01:52.152Z,100.00
2023-05-15T03:04:18.641Z,100.00
2023-05-15T03:06:45.046Z,100.00
2023-05-15T03:09:11.538Z,100.00
2023-05-15T03:11:37.944Z,100.00
2023-05-15T03:14:04.349Z,100.00
2023-05-15T03:16:30.822Z,100.00
2023-05-15T03:18:57.305Z,100.00
2023-05-15T03:21:23.721Z,100.00
2023-05-15T03:23:50.103Z,100.00
2023-05-15T03:26:16.470Z,100.00
2023-05-15T03:28:42.849Z,100.00
2023-05-15T03:31:12.121Z,100.00
2023-05-15T03:33:38.504Z,100.00
2023-05-15T03:36:05.469Z,100.00
2023-05-15T03:38:32.186Z,100.00
2023-05-15T03:40:58.600Z,100.00
2023-05-15T03:43:25.010Z,100.00
2023-05-15T03:45:51.408Z,100.00
2023-05-15T03:48:17.788Z,100.00
2023-05-15T03:50:45.356Z,100.00
2023-05-15T03:53:11.871Z,100.00
2023-05-15T03:55:38.398Z,100.00
2023-05-15T03:58:04.782Z,100.00
2023-05-15T04:00:31.169Z,100.00
2023-05-15T04:02:57.695Z,100.00
2023-05-15T04:05:24.339Z,100.00
2023-05-15T04:07:50.931Z,100.00
2023-05-15T04:10:17.416Z,100.00
2023-05-15T04:12:43.872Z,100.00
2023-05-15T04:15:24.819Z,100.00
2023-05-15T04:17:53.521Z,100.00
2023-05-15T04:20:22.428Z,100.00
2023-05-15T04:22:49.521Z,100.00
2023-05-15T04:25:16.562Z,100.00
2023-05-15T04:27:43.737Z,100.00
2023-05-15T04:30:11.421Z,100.00
2023-05-15T04:32:38.565Z,100.00
2023-05-15T04:35:10.089Z,100.00
2023-05-15T04:37:37.318Z,100.00
2023-05-15T04:40:04.474Z,100.00
2023-05-15T04:42:30.866Z,100.00
2023-05-15T04:44:57.548Z,100.00
2023-05-15T04:47:24.025Z,100.00
2023-05-15T04:49:50.502Z,100.00
2023-05-15T04:52:17.677Z,100.00
2023-05-15T04:54:44.123Z,100.00
2023-05-15T04:57:10.517Z,100.00
2023-05-15T04:59:36.923Z,100.00
2023-05-15T05:02:03.513Z,100.00
2023-05-15T05:04:29.953Z,100.00
2023-05-15T05:06:56.496Z,100.00
2023-05-15T05:09:22.974Z,100.00
2023-05-15T05:11:49.405Z,100.00
2023-05-15T05:14:16.232Z,100.00
2023-05-15T05:16:45.537Z,100.00
2023-05-15T05:19:12.033Z,100.00
2023-05-15T05:21:38.637Z,100.00
2023-05-15T05:24:05.249Z,100.00
2023-05-15T05:26:31.687Z,100.00
2023-05-15T05:28:58.064Z,100.00
2023-05-15T05:31:24.539Z,100.00
2023-05-15T05:33:52.559Z,100.00
2023-05-15T05:36:18.951Z,100.00
2023-05-15T05:38:45.335Z,100.00
2023-05-15T05:41:11.767Z,100.00
2023-05-15T05:43:38.131Z,100.00
2023-05-15T05:46:04.538Z,100.00
2023-05-15T05:48:30.969Z,100.00
2023-05-15T05:50:57.788Z,100.00
2023-05-15T05:53:24.194Z,100.00
2023-05-15T05:55:50.649Z,100.00
2023-05-15T06:00:50.868Z,100.00
2023-05-15T06:03:17.426Z,100.00
2023-05-15T06:05:44.058Z,100.00
2023-05-15T06:08:10.567Z,100.00
2023-05-15T06:10:36.983Z,100.00
2023-05-15T06:13:03.416Z,100.00
2023-05-15T06:15:29.824Z,100.00
2023-05-15T06:17:56.546Z,100.00
2023-05-15T06:20:23.213Z,100.00
2023-05-15T06:22:49.726Z,100.00
2023-05-15T06:25:16.151Z,100.00
2023-05-15T06:27:42.584Z,100.00
2023-05-15T06:30:09.791Z,100.00
2023-05-15T06:32:36.249Z,100.00
2023-05-15T06:35:03.316Z,100.00
2023-05-15T06:37:30.225Z,100.00
2023-05-15T06:39:56.599Z,100.00
2023-05-15T06:42:23.626Z,100.00
2023-05-15T06:44:50.074Z,100.00
2023-05-15T06:47:16.651Z,100.00
2023-05-15T06:49:43.050Z,100.00
2023-05-15T06:52:09.504Z,100.00
2023-05-15T06:54:35.899Z,100.00
2023-05-15T06:57:02.345Z,100.00
2023-05-15T06:59:28.783Z,100.00
2023-05-15T07:01:56.064Z,100.00
2023-05-15T07:04:22.696Z,100.00
2023-05-15T07:06:49.161Z,100.00
2023-05-15T07:09:15.573Z,100.00
2023-05-15T07:11:42.228Z,100.00
2023-05-15T07:14:08.681Z,100.00
2023-05-15T07:16:35.095Z,100.00
2023-05-15T07:19:01.686Z,100.00
2023-05-15T07:21:28.242Z,100.00
2023-05-15T07:23:54.626Z,100.00
2023-05-15T07:26:32.440Z,100.00
2023-05-15T07:29:01.080Z,100.00
2023-05-15T07:31:27.530Z,100.00
2023-05-15T07:33:53.975Z,100.00
2023-05-15T07:36:20.702Z,100.00
2023-05-15T07:38:47.077Z,100.00
2023-05-15T07:41:13.518Z,100.00
2023-05-15T07:43:40.306Z,100.00
2023-05-15T07:46:06.802Z,100.00
2023-05-15T07:48:33.257Z,100.00
2023-05-15T07:50:59.647Z,100.00
2023-05-15T07:53:26.369Z,100.00
2023-05-15T07:55:53.050Z,100.00
2023-05-15T07:58:19.499Z,100.00
2023-05-15T08:00:45.984Z,100.00
2023-05-15T08:03:12.648Z,100.00
2023-05-15T08:05:39.257Z,98.70
2023-05-15T08:08:05.632Z,100.00
2023-05-15T08:10:32.250Z,100.00
2023-05-15T08:12:58.668Z,99.39
2023-05-15T08:15:25.297Z,98.39
2023-05-15T08:17:51.992Z,98.38
2023-05-15T08:20:18.454Z,100.00
2023-05-15T08:22:44.848Z,99.75
2023-05-15T08:25:11.573Z,99.47
2023-05-15T08:27:37.990Z,95.63
2023-05-15T08:30:04.764Z,94.71
2023-05-15T08:32:31.200Z,94.95
2023-05-15T08:34:58.140Z,90.88
2023-05-15T08:37:24.621Z,90.01
2023-05-15T08:39:51.030Z,89.24
2023-05-15T08:42:24.890Z,90.78
2023-05-15T08:44:51.336Z,91.86
2023-05-15T08:47:19.165Z,89.09
2023-05-15T08:50:01.672Z,89.91
2023-05-15T08:52:28.753Z,89.69
2023-05-15T08:54:55.213Z,90.68
2023-05-15T08:57:21.971Z,88.75
2023-05-15T08:59:49.362Z,91.06
2023-05-15T09:02:16.078Z,88.94
2023-05-15T09:04:42.546Z,86.86
2023-05-15T09:07:09.902Z,85.65
2023-05-15T09:09:37.180Z,88.85
2023-05-15T09:12:04.267Z,87.68
2023-05-15T09:14:30.930Z,82.48
2023-05-15T09:16:57.385Z,81.94
2023-05-15T09:19:23.903Z,81.29
2023-05-15T09:21:50.429Z,78.70
2023-05-15T09:24:24.599Z,75.53
2023-05-15T09:27:07.930Z,78.94
2023-05-15T09:29:37.130Z,81.07
2023-05-15T09:32:08.897Z,79.45
2023-05-15T09:34:38.088Z,79.26
2023-05-15T09:37:06.911Z,78.33
2023-05-15T09:39:40.001Z,75.58
2023-05-15T09:42:08.500Z,79.43
2023-05-15T09:44:35.057Z,79.12
2023-05-15T09:47:01.984Z,77.78
2023-05-15T09:49:30.575Z,77.97
2023-05-15T09:51:59.866Z,74.19
2023-05-15T09:54:27.508Z,72.22
2023-05-15T09:56:54.026Z,77.06
2023-05-15T09:59:23.447Z,74.90
2023-05-15T10:01:51.668Z,70.88
2023-05-15T10:04:18.613Z,71.47
2023-05-15T10:06:48.867Z,74.16
2023-05-15T10:09:15.589Z,71.81
2023-05-15T10:11:45.249Z,70.37
2023-05-15T10:14:13.550Z,70.03
2023-05-15T10:16:40.945Z,68.38
2023-05-15T10:19:09.858Z,69.07
2023-05-15T10:21:38.288Z,64.92
2023-05-15T10:24:06.147Z,65.61
2023-05-15T10:26:40.500Z,68.24
2023-05-15T10:29:12.293Z,63.72
2023-05-15T10:31:42.404Z,66.75
2023-05-15T10:34:10.548Z,65.67
2023-05-15T10:36:38.662Z,66.61
2023-05-15T10:39:07.326Z,65.71
2023-05-15T10:41:39.710Z,67.59
2023-05-15T10:44:06.515Z,65.40
2023-05-15T10:46:35.521Z,63.95
2023-05-15T10:49:02.258Z,63.08
2023-05-15T10:51:31.635Z,64.88
2023-05-15T10:53:59.570Z,63.65
2023-05-15T10:56:29.541Z,65.08
2023-05-15T10:58:56.114Z,65.05
2023-05-15T11:01:35.134Z,66.48
2023-05-15T11:04:15.858Z,65.52
2023-05-15T11:06:47.595Z,61.58
2023-05-15T11:09:25.869Z,60.71
2023-05-15T11:11:57.030Z,61.67
2023-05-15T11:14:27.993Z,59.74
2023-05-15T11:16:54.474Z,60.52
2023-05-15T11:19:37.823Z,63.95
2023-05-15T11:22:22.931Z,64.06
2023-05-15T11:25:14.294Z,62.43
2023-05-15T11:27:43.147Z,61.57
2023-05-15T11:30:25.078Z,64.04
2023-05-15T11:32:54.764Z,66.07
2023-05-15T11:35:23.512Z,64.14
2023-05-15T11:38:14.276Z,64.76
2023-05-15T11:40:44.991Z,62.03
2023-05-15T11:43:27.510Z,63.65
2023-05-15T11:45:57.667Z,60.09
2023-05-15T11:48:32.780Z,58.62
2023-05-15T11:51:01.248Z,60.46
2023-05-15T11:53:29.745Z,59.82
2023-05-15T11:55:56.518Z,62.27
2023-05-15T11:58:24.733Z,61.79
2023-05-15T12:00:52.649Z,65.71
2023-05-15T12:03:22.086Z,64.24
2023-05-15T12:05:58.415Z,64.01
2023-05-15T12:08:30.697Z,61.65
2023-05-15T12:10:58.870Z,62.34
2023-05-15T12:13:25.251Z,65.52
2023-05-15T12:15:51.825Z,65.56
2023-05-15T12:18:18.264Z,66.95
2023-05-15T12:20:48.213Z,67.67
2023-05-15T12:23:15.944Z,68.96
2023-05-15T12:25:44.573Z,67.53
2023-05-15T12:28:12.153Z,64.88
2023-05-15T12:30:39.455Z,65.83
2023-05-15T12:33:07.832Z,68.12
2023-05-15T12:35:44.936Z,67.68
2023-05-15T12:38:16.606Z,71.81
2023-05-15T12:40:44.002Z,71.92
2023-05-15T12:43:10.601Z,70.02
2023-05-15T12:45:41.705Z,69.75
2023-05-15T12:48:13.212Z,68.97
2023-05-15T12:50:39.889Z,71.81
2023-05-15T12:53:06.373Z,75.87
2023-05-15T12:55:34.808Z,71.33
2023-05-15T12:58:09.116Z,72.19
2023-05-15T13:00:36.961Z,71.78
2023-05-15T13:03:04.589Z,71.82
2023-05-15T13:05:35.855Z,71.59
2023-05-15T13:08:04.762Z,70.71
2023-05-15T13:10:35.432Z,70.38
2023-05-15T13:13:02.152Z,67.54
2023-05-15T13:15:37.593Z,65.65
2023-05-15T13:18:09.032Z,65.20
2023-05-15T13:20:38.874Z,65.95
2023-05-15T13:23:05.679Z,64.85
2023-05-15T13:25:32.434Z,66.30
2023-05-15T13:28:01.851Z,66.43
2023-05-15T13:30:29.177Z,67.61
2023-05-15T13:32:56.120Z,68.00
2023-05-15T13:35:23.125Z,67.71
2023-05-15T13:37:50.352Z,66.85
2023-05-15T13:40:16.779Z,68.26
2023-05-15T13:42:43.882Z,67.66
2023-05-15T13:45:14.613Z,66.62
2023-05-15T13:47:41.380Z,67.87
2023-05-15T13:50:13.060Z,69.32
2023-05-15T13:52:40.602Z,68.87
2023-05-15T13:55:09.741Z,72.96
2023-05-15T13:57:37.833Z,73.99
2023-05-15T14:00:13.339Z,71.83
2023-05-15T14:02:44.459Z,68.58
2023-05-15T14:05:12.749Z,69.34
2023-05-15T14:07:39.593Z,68.24
2023-05-15T14:10:08.132Z,64.07
2023-05-15T14:12:34.820Z,65.54
2023-05-15T14:15:01.211Z,66.78
2023-05-15T14:17:28.528Z,66.39
2023-05-15T14:19:55.050Z,66.27
2023-05-15T14:22:24.655Z,68.05
2023-05-15T14:24:52.371Z,68.85
2023-05-15T14:27:19.019Z,72.01
2023-05-15T14:29:45.852Z,73.74
2023-05-15T14:32:12.326Z,72.82
2023-05-15T14:34:38.784Z,74.52
2023-05-15T14:37:05.194Z,74.68
2023-05-15T14:39:31.795Z,74.73
2023-05-15T14:41:58.309Z,75.72
2023-05-15T14:44:24.720Z,75.95
2023-05-15T14:47:08.480Z,74.09
2023-05-15T14:49:35.972Z,74.08
2023-05-15T14:52:02.963Z,73.06
2023-05-15T14:54:29.601Z,71.86
2023-05-15T14:56:57.559Z,72.64
2023-05-15T14:59:28.329Z,77.47
2023-05-15T15:01:54.789Z,78.90
2023-05-15T15:04:21.203Z,79.26
2023-05-15T15:06:48.083Z,82.35
2023-05-15T15:09:14.618Z,84.08
2023-05-15T15:11:41.268Z,84.26
2023-05-15T15:14:07.709Z,85.89
2023-05-15T15:16:34.239Z,86.69
2023-05-15T15:19:00.743Z,88.22
2023-05-15T15:21:27.252Z,89.96
2023-05-15T15:23:54.708Z,93.35
2023-05-15T15:26:21.770Z,94.95
2023-05-15T15:28:48.261Z,94.60
2023-05-15T15:31:15.405Z,92.82
2023-05-15T15:33:41.878Z,92.38
2023-05-15T15:36:08.365Z,95.05
2023-05-15T15:38:34.870Z,96.30
2023-05-15T15:41:03.524Z,95.15
2023-05-15T15:43:29.942Z,94.42
2023-05-15T15:45:56.350Z,95.59
2023-05-15T15:48:22.776Z,95.14
2023-05-15T15:50:49.184Z,97.05
2023-05-15T15:53:15.625Z,95.50
2023-05-15T15:55:42.055Z,96.66
2023-05-15T15:58:08.487Z,94.01
2023-05-15T16:00:35.446Z,92.86
2023-05-15T16:03:02.015Z,93.20
2023-05-15T16:05:28.528Z,93.74
2023-05-15T16:07:54.928Z,95.10
2023-05-15T16:10:21.304Z,100.00
2023-05-15T16:12:47.758Z,100.00
2023-05-15T16:15:23.042Z,100.00
2023-05-15T16:17:52.505Z,100.00
2023-05-15T16:20:19.604Z,100.00
2023-05-15T16:22:46.034Z,100.00
2023-05-15T16:25:12.482Z,100.00
2023-05-15T16:27:38.869Z,100.00
2023-05-15T16:30:05.755Z,100.00
2023-05-15T16:32:33.973Z,100.00
2023-05-15T16:35:00.678Z,100.00
2023-05-15T16:37:27.036Z,100.00
2023-05-15T16:39:53.422Z,100.00
2023-05-15T16:42:19.837Z,100.00
2023-05-15T16:44:46.205Z,100.00
2023-05-15T16:47:12.645Z,100.00
2023-05-15T16:49:39.048Z,100.00
2023-05-15T16:52:05.467Z,100.00
2023-05-15T16:54:31.919Z,100.00
2023-05-15T16:56:58.278Z,100.00
2023-05-15T16:59:24.670Z,100.00
2023-05-15T17:01:51.100Z,100.00
2023-05-15T17:04:17.692Z,100.00
2023-05-15T17:06:44.436Z,100.00
2023-05-15T17:09:10.906Z,100.00
2023-05-15T17:11:37.293Z,100.00
2023-05-15T17:14:03.768Z,100.00
2023-05-15T17:16:30.230Z,100.00
2023-05-15T17:18:56.771Z,100.00
2023-05-15T17:21:23.229Z,100.00
2023-05-15T17:23:52.113Z,100.00
2023-05-15T17:26:18.536Z,100.00
2023-05-15T17:28:44.929Z,100.00
2023-05-15T17:31:11.424Z,100.00
2023-05-15T17:33:37.896Z,100.00
2023-05-15T17:36:04.554Z,100.00
2023-05-15T17:38:30.922Z,100.00
2023-05-15T17:40:57.315Z,100.00
2023-05-15T17:43:23.733Z,100.00
2023-05-15T17:45:50.228Z,100.00
2023-05-15T17:48:16.676Z,100.00
2023-05-15T17:50:43.053Z,100.00
2023-05-15T17:53:09.413Z,100.00
2023-05-15T17:55:35.809Z,100.00
2023-05-15T17:58:02.249Z,100.00
2023-05-15T18:00:28.698Z,100.00
2023-05-15T18:02:55.189Z,100.00
2023-05-15T18:05:21.734Z,100.00
2023-05-15T18:07:48.254Z,100.00
2023-05-15T18:10:14.792Z,100.00
2023-05-15T18:12:41.210Z,100.00
2023-05-15T18:15:08.114Z,100.00
2023-05-15T18:17:34.589Z,100.00
2023-05-15T18:20:01.760Z,100.00
2023-05-15T18:22:28.175Z,100.00
2023-05-15T18:24:54.572Z,100.00
2023-05-15T18:27:20.988Z,100.00
2023-05-15T18:29:47.401Z,100.00
2023-05-15T18:32:13.851Z,100.00
2023-05-15T18:34:40.661Z,100.00
2023-05-15T18:37:07.111Z,100.00
2023-05-15T18:39:33.509Z,100.00
2023-05-15T18:42:00.304Z,100.00
2023-05-15T18:44:26.772Z,100.00
2023-05-15T18:46:53.274Z,100.00
2023-05-15T18:49:19.842Z,100.00
2023-05-15T18:51:46.243Z,100.00
2023-05-15T18:54:12.714Z,100.00
2023-05-15T18:56:40.634Z,100.00
2023-05-15T18:59:08.896Z,100.00
2023-05-15T19:01:35.353Z,100.00
2023-05-15T19:04:01.760Z,100.00
2023-05-15T19:06:28.128Z,100.00
2023-05-15T19:08:54.530Z,100.00
2023-05-15T19:11:21.456Z,100.00
2023-05-15T19:13:47.947Z,100.00
2023-05-15T19:16:14.413Z,100.00
2023-05-15T19:18:41.084Z,100.00
2023-05-15T19:21:07.546Z,100.00
2023-05-15T19:23:34.014Z,100.00
2023-05-15T19:26:00.656Z,100.00
2023-05-15T19:28:27.216Z,100.00
2023-05-15T19:30:53.882Z,100.00
2023-05-15T19:33:20.777Z,100.00
2023-05-15T19:35:47.451Z,100.00
2023-05-15T19:38:13.870Z,100.00
2023-05-15T19:40:43.126Z,100.00
2023-05-15T19:43:11.275Z,100.00
2023-05-15T19:45:41.083Z,100.00
2023-05-15T19:48:07.758Z,100.00
2023-05-15T19:50:34.291Z,100.00
2023-05-15T19:53:00.872Z,100.00
2023-05-15T19:55:27.547Z,100.00
2023-05-15T19:57:56.282Z,100.00
2023-05-15T20:00:22.819Z,100.00
2023-05-15T20:02:49.345Z,100.00
2023-05-15T20:05:15.899Z,100.00
2023-05-15T20:07:43.168Z,100.00
2023-05-15T20:10:10.409Z,100.00
2023-05-15T20:12:36.843Z,100.00
2023-05-15T20:15:03.693Z,100.00
2023-05-15T20:17:30.174Z,100.00
2023-05-15T20:19:58.959Z,100.00
2023-05-15T20:22:25.499Z,100.00
2023-05-15T20:24:52.094Z,100.00
2023-05-15T20:27:18.486Z,100.00
2023-05-15T20:29:47.975Z,100.00
2023-05-15T20:32:14.950Z,100.00
2023-05-15T20:34:45.552Z,100.00
2023-05-15T20:37:13.316Z,100.00
2023-05-15T20:39:39.821Z,100.00
2023-05-15T20:42:06.605Z,100.00
2023-05-15T20:44:36.246Z,100.00
2023-05-15T20:47:03.868Z,100.00
2023-05-15T20:49:30.318Z,100.00
2023-05-15T20:51:56.808Z,100.00
2023-05-15T20:54:23.421Z,100.00
2023-05-15T20:56:49.801Z,100.00
2023-05-15T20:59:16.215Z,100.00
2023-05-15T21:01:42.651Z,100.00
2023-05-15T21:04:09.196Z,100.00
2023-05-15T21:06:36.006Z,100.00
2023-05-15T21:09:02.475Z,100.00
2023-05-15T21:11:29.220Z,100.00
2023-05-15T21:13:55.635Z,100.00
2023-05-15T21:16:22.078Z,100.00
2023-05-15T21:18:49.008Z,100.00
2023-05-15T21:21:16.526Z,100.00
2023-05-15T21:23:42.988Z,100.00
2023-05-15T21:26:09.525Z,100.00
2023-05-15T21:28:35.912Z,100.00
2023-05-15T21:31:09.275Z,100.00
2023-05-15T21:33:36.095Z,100.00
2023-05-15T21:36:03.756Z,100.00
2023-05-15T21:38:30.926Z,100.00
2023-05-15T21:40:58.686Z,100.00
2023-05-15T21:43:25.236Z,100.00
2023-05-15T21:45:54.277Z,100.00
2023-05-15T21:48:20.672Z,100.00
2023-05-15T21:50:47.057Z,100.00
2023-05-15T21:53:13.474Z,100.00
2023-05-15T21:55:39.940Z,100.00
2023-05-15T21:58:07.185Z,100.00
2023-05-15T22:00:36.667Z,100.00
2023-05-15T22:03:03.241Z,100.00
2023-05-15T22:05:29.668Z,100.00
2023-05-15T22:07:57.070Z,100.00
2023-05-15T22:10:23.595Z,100.00
2023-05-15T22:12:50.248Z,100.00
2023-05-15T22:15:16.976Z,100.00
2023-05-15T22:17:43.460Z,100.00
2023-05-15T22:20:11.449Z,100.00
2023-05-15T22:22:39.460Z,100.00
2023-05-15T22:25:06.807Z,100.00
2023-05-15T22:27:33.506Z,100.00
2023-05-15T22:29:59.905Z,100.00
2023-05-15T22:32:26.623Z,100.00
2023-05-15T22:34:53.126Z,100.00
2023-05-15T22:37:20.000Z,100.00
2023-05-15T22:39:46.449Z,100.00
2023-05-15T22:42:12.967Z,100.00
2023-05-15T22:44:39.374Z,100.00
2023-05-15T22:47:05.969Z,100.00
2023-05-15T22:49:32.346Z,100.00
2023-05-15T22:51:58.744Z,100.00
2023-05-15T22:54:25.250Z,100.00
2023-05-15T22:56:52.687Z,100.00
2023-05-15T22:59:19.622Z,100.00
2023-05-15T23:01:46.644Z,100.00
2023-05-15T23:04:13.762Z,100.00
2023-05-15T23:06:41.004Z,100.00
2023-05-15T23:09:08.450Z,100.00
2023-05-15T23:11:35.248Z,100.00
2023-05-15T23:14:02.042Z,100.00
2023-05-15T23:16:28.758Z,100.00
2023-05-15T23:18:56.643Z,100.00
2023-05-15T23:21:23.122Z,100.00
2023-05-15T23:23:49.530Z,100.00
2023-05-15T23:26:15.911Z,100.00
2023-05-15T23:28:42.324Z,100.00
2023-05-15T23:31:10.168Z,100.00
2023-05-15T23:33:36.806Z,100.00
2023-05-15T23:36:03.269Z,100.00
2023-05-15T23:38:29.673Z,100.00
2023-05-15T23:40:56.211Z,100.00
2023-05-15T23:43:22.598Z,100.00
2023-05-15T23:45:49.079Z,100.00
2023-05-15T23:48:15.671Z,100.00
2023-05-15T23:50:42.088Z,100.00
2023-05-15T23:53:08.552Z,100.00
2023-05-15T23:55:35.136Z,100.00
2023-05-15T23:58:01.584Z,100.00
